sensor_id;sensor_type;location;lat;lon;timestamp;P1;durP1;ratioP1;P2;durP2;ratioP2
5381;SDS011;2714;49.852;6.564;2023-04-01T00:02:31;2.70;;;1.53;;
5381;SDS011;2714;49.852;6.564;2023-04-01T00:06:31;8.50;;;1.70;;
5381;SDS011;2714;49.852;6.564;2023-04-01T00:10:32;6.73;;;1.60;;
5381;SDS011;2714;49.852;6.564;2023-04-01T00:14:32;6.80;;;1.83;;
5381;SDS011;2714;49.852;6.564;2023-04-01T00:18:33;4.27;;;1.30;;
5381;SDS011;2714;49.852;6.564;2023-04-01T00:22:34;4.83;;;1.40;;
5381;SDS011;2714;49.852;6.564;2023-04-01T00:26:34;8.60;;;2.40;;
5381;SDS011;2714;49.852;6.564;2023-04-01T00:30:36;3.33;;;1.00;;
5381;SDS011;2714;49.852;6.564;2023-04-01T00:34:37;6.83;;;1.53;;
5381;SDS011;2714;49.852;6.564;2023-04-01T00:38:37;5.07;;;1.67;;
5381;SDS011;2714;49.852;6.564;2023-04-01T00:42:38;5.73;;;1.77;;
5381;SDS011;2714;49.852;6.564;2023-04-01T00:46:39;3.90;;;1.67;;
5381;SDS011;2714;49.852;6.564;2023-04-01T00:50:40;2.73;;;1.47;;
5381;SDS011;2714;49.852;6.564;2023-04-01T00:54:45;6.40;;;1.87;;
5381;SDS011;2714;49.852;6.564;2023-04-01T00:58:49;7.67;;;2.07;;
5381;SDS011;2714;49.852;6.564;2023-04-01T01:02:54;7.67;;;1.70;;
5381;SDS011;2714;49.852;6.564;2023-04-01T01:11:18;5.27;;;1.80;;
5381;SDS011;2714;49.852;6.564;2023-04-01T01:15:28;5.83;;;1.70;;
5381;SDS011;2714;49.852;6.564;2023-04-01T01:33:16;5.50;;;1.90;;
5381;SDS011;2714;49.852;6.564;2023-04-01T01:37:42;11.23;;;1.70;;
5381;SDS011;2714;49.852;6.564;2023-04-01T01:41:44;3.40;;;1.33;;
5381;SDS011;2714;49.852;6.564;2023-04-01T01:45:50;5.93;;;1.37;;
5381;SDS011;2714;49.852;6.564;2023-04-01T01:49:55;8.80;;;1.73;;
5381;SDS011;2714;49.852;6.564;2023-04-01T01:53:56;4.90;;;1.60;;
5381;SDS011;2714;49.852;6.564;2023-04-01T01:57:58;4.87;;;1.90;;
5381;SDS011;2714;49.852;6.564;2023-04-01T02:02:02;9.33;;;1.70;;
5381;SDS011;2714;49.852;6.564;2023-04-01T02:06:08;7.80;;;2.00;;
5381;SDS011;2714;49.852;6.564;2023-04-01T02:10:11;7.90;;;1.77;;
5381;SDS011;2714;49.852;6.564;2023-04-01T02:14:13;4.70;;;1.40;;
5381;SDS011;2714;49.852;6.564;2023-04-01T02:18:16;3.90;;;1.40;;
5381;SDS011;2714;49.852;6.564;2023-04-01T02:22:21;4.63;;;1.70;;
5381;SDS011;2714;49.852;6.564;2023-04-01T02:26:24;4.23;;;1.50;;
5381;SDS011;2714;49.852;6.564;2023-04-01T02:30:27;4.93;;;1.57;;
5381;SDS011;2714;49.852;6.564;2023-04-01T02:34:29;2.90;;;1.20;;
5381;SDS011;2714;49.852;6.564;2023-04-01T02:38:30;2.67;;;1.30;;
5381;SDS011;2714;49.852;6.564;2023-04-01T02:42:31;3.40;;;1.30;;
5381;SDS011;2714;49.852;6.564;2023-04-01T02:46:32;3.90;;;1.20;;
5381;SDS011;2714;49.852;6.564;2023-04-01T02:50:33;3.93;;;1.43;;
5381;SDS011;2714;49.852;6.564;2023-04-01T02:54:34;5.93;;;1.90;;
5381;SDS011;2714;49.852;6.564;2023-04-01T02:58:36;7.03;;;1.30;;
5381;SDS011;2714;49.852;6.564;2023-04-01T03:02:37;3.03;;;1.40;;
5381;SDS011;2714;49.852;6.564;2023-04-01T03:06:38;3.10;;;1.30;;
5381;SDS011;2714;49.852;6.564;2023-04-01T03:10:39;3.20;;;1.40;;
5381;SDS011;2714;49.852;6.564;2023-04-01T03:14:39;3.80;;;1.50;;
5381;SDS011;2714;49.852;6.564;2023-04-01T03:18:40;5.33;;;1.87;;
5381;SDS011;2714;49.852;6.564;2023-04-01T03:22:40;5.53;;;1.60;;
5381;SDS011;2714;49.852;6.564;2023-04-01T03:26:41;4.33;;;1.47;;
5381;SDS011;2714;49.852;6.564;2023-04-01T03:30:42;5.60;;;1.80;;
5381;SDS011;2714;49.852;6.564;2023-04-01T03:34:42;4.60;;;1.70;;
5381;SDS011;2714;49.852;6.564;2023-04-01T03:38:43;4.53;;;1.80;;
5381;SDS011;2714;49.852;6.564;2023-04-01T03:42:44;5.53;;;1.40;;
5381;SDS011;2714;49.852;6.564;2023-04-01T03:46:45;4.70;;;1.50;;
5381;SDS011;2714;49.852;6.564;2023-04-01T03:50:46;4.20;;;1.50;;
5381;SDS011;2714;49.852;6.564;2023-04-01T03:54:47;3.40;;;1.70;;
5381;SDS011;2714;49.852;6.564;2023-04-01T03:58:47;4.63;;;1.73;;
5381;SDS011;2714;49.852;6.564;2023-04-01T04:02:48;3.77;;;1.30;;
5381;SDS011;2714;49.852;6.564;2023-04-01T04:06:48;2.63;;;1.10;;
5381;SDS011;2714;49.852;6.564;2023-04-01T04:10:56;3.97;;;1.30;;
5381;SDS011;2714;49.852;6.564;2023-04-01T04:14:57;2.77;;;1.20;;
5381;SDS011;2714;49.852;6.564;2023-04-01T04:18:57;3.77;;;1.23;;
5381;SDS011;2714;49.852;6.564;2023-04-01T04:23:00;3.73;;;1.23;;
5381;SDS011;2714;49.852;6.564;2023-04-01T04:27:01;3.90;;;1.43;;
5381;SDS011;2714;49.852;6.564;2023-04-01T04:31:02;5.10;;;1.23;;
5381;SDS011;2714;49.852;6.564;2023-04-01T04:35:05;1.73;;;1.20;;
5381;SDS011;2714;49.852;6.564;2023-04-01T04:39:06;5.90;;;1.37;;
5381;SDS011;2714;49.852;6.564;2023-04-01T04:43:07;9.10;;;3.10;;
5381;SDS011;2714;49.852;6.564;2023-04-01T04:47:13;6.67;;;1.40;;
5381;SDS011;2714;49.852;6.564;2023-04-01T04:51:14;1.80;;;1.20;;
5381;SDS011;2714;49.852;6.564;2023-04-01T04:55:16;3.27;;;1.20;;
5381;SDS011;2714;49.852;6.564;2023-04-01T04:59:17;1.77;;;0.90;;
5381;SDS011;2714;49.852;6.564;2023-04-01T05:03:18;5.83;;;1.40;;
5381;SDS011;2714;49.852;6.564;2023-04-01T05:07:18;4.50;;;1.10;;
5381;SDS011;2714;49.852;6.564;2023-04-01T05:11:19;4.20;;;1.37;;
5381;SDS011;2714;49.852;6.564;2023-04-01T05:15:20;1.93;;;1.00;;
5381;SDS011;2714;49.852;6.564;2023-04-01T05:19:21;3.83;;;1.00;;
5381;SDS011;2714;49.852;6.564;2023-04-01T05:23:22;2.13;;;1.07;;
5381;SDS011;2714;49.852;6.564;2023-04-01T05:27:22;1.60;;;0.83;;
5381;SDS011;2714;49.852;6.564;2023-04-01T05:31:23;1.80;;;0.83;;
5381;SDS011;2714;49.852;6.564;2023-04-01T05:35:24;2.40;;;1.10;;
5381;SDS011;2714;49.852;6.564;2023-04-01T05:39:24;1.00;;;0.80;;
5381;SDS011;2714;49.852;6.564;2023-04-01T05:43:25;1.80;;;1.10;;
5381;SDS011;2714;49.852;6.564;2023-04-01T05:47:25;1.93;;;0.83;;
5381;SDS011;2714;49.852;6.564;2023-04-01T05:51:26;1.83;;;0.90;;
5381;SDS011;2714;49.852;6.564;2023-04-01T05:55:27;2.50;;;1.10;;
5381;SDS011;2714;49.852;6.564;2023-04-01T05:59:27;3.80;;;1.00;;
5381;SDS011;2714;49.852;6.564;2023-04-01T06:03:28;1.47;;;0.97;;
5381;SDS011;2714;49.852;6.564;2023-04-01T06:07:28;2.23;;;1.10;;
5381;SDS011;2714;49.852;6.564;2023-04-01T06:11:48;1.30;;;0.90;;
5381;SDS011;2714;49.852;6.564;2023-04-01T06:16:07;2.90;;;0.90;;
5381;SDS011;2714;49.852;6.564;2023-04-01T06:42:17;2.23;;;0.80;;
5381;SDS011;2714;49.852;6.564;2023-04-01T06:46:35;1.43;;;0.73;;
5381;SDS011;2714;49.852;6.564;2023-04-01T06:51:01;1.33;;;0.90;;
5381;SDS011;2714;49.852;6.564;2023-04-01T06:56:07;1.67;;;1.00;;
5381;SDS011;2714;49.852;6.564;2023-04-01T06:59:41;1.17;;;0.80;;
5381;SDS011;2714;49.852;6.564;2023-04-01T07:03:53;1.20;;;0.70;;
5381;SDS011;2714;49.852;6.564;2023-04-01T07:07:59;1.00;;;0.67;;
5381;SDS011;2714;49.852;6.564;2023-04-01T07:16:56;3.33;;;1.90;;
5381;SDS011;2714;49.852;6.564;2023-04-01T07:21:05;1.40;;;0.80;;
5381;SDS011;2714;49.852;6.564;2023-04-01T07:29:34;1.57;;;0.80;;
5381;SDS011;2714;49.852;6.564;2023-04-01T07:33:39;1.97;;;0.80;;
5381;SDS011;2714;49.852;6.564;2023-04-01T07:38:13;1.37;;;0.70;;
5381;SDS011;2714;49.852;6.564;2023-04-01T07:51:01;1.00;;;0.70;;
5381;SDS011;2714;49.852;6.564;2023-04-01T07:55:23;1.10;;;0.70;;
5381;SDS011;2714;49.852;6.564;2023-04-01T08:12:52;1.10;;;0.70;;
5381;SDS011;2714;49.852;6.564;2023-04-01T08:17:27;1.50;;;0.80;;
5381;SDS011;2714;49.852;6.564;2023-04-01T08:21:38;1.60;;;1.00;;
5381;SDS011;2714;49.852;6.564;2023-04-01T08:25:49;1.00;;;0.70;;
5381;SDS011;2714;49.852;6.564;2023-04-01T08:34:47;1.10;;;0.70;;
5381;SDS011;2714;49.852;6.564;2023-04-01T08:39:04;1.10;;;0.70;;
5381;SDS011;2714;49.852;6.564;2023-04-01T08:47:51;1.20;;;0.80;;
5381;SDS011;2714;49.852;6.564;2023-04-01T08:56:53;1.47;;;0.90;;
5381;SDS011;2714;49.852;6.564;2023-04-01T09:35:48;1.83;;;0.80;;
5381;SDS011;2714;49.852;6.564;2023-04-01T09:40:11;1.03;;;0.70;;
5381;SDS011;2714;49.852;6.564;2023-04-01T09:44:23;1.53;;;0.80;;
5381;SDS011;2714;49.852;6.564;2023-04-01T10:02:10;1.10;;;0.70;;
5381;SDS011;2714;49.852;6.564;2023-04-01T10:06:44;1.27;;;0.90;;
5381;SDS011;2714;49.852;6.564;2023-04-01T10:11:13;2.60;;;0.80;;
5381;SDS011;2714;49.852;6.564;2023-04-01T10:36:59;1.70;;;1.30;;
5381;SDS011;2714;49.852;6.564;2023-04-01T10:42:07;2.17;;;1.00;;
5381;SDS011;2714;49.852;6.564;2023-04-01T11:13:02;1.80;;;1.27;;
5381;SDS011;2714;49.852;6.564;2023-04-01T11:30:35;1.93;;;1.47;;
5381;SDS011;2714;49.852;6.564;2023-04-01T11:43:27;1.10;;;0.80;;
5381;SDS011;2714;49.852;6.564;2023-04-01T12:00:32;1.13;;;0.80;;
5381;SDS011;2714;49.852;6.564;2023-04-01T12:13:53;1.23;;;0.80;;
5381;SDS011;2714;49.852;6.564;2023-04-01T12:31:25;1.30;;;0.90;;
5381;SDS011;2714;49.852;6.564;2023-04-01T12:40:35;1.70;;;1.00;;
5381;SDS011;2714;49.852;6.564;2023-04-01T12:44:39;1.40;;;1.00;;
5381;SDS011;2714;49.852;6.564;2023-04-01T12:49:05;2.07;;;1.10;;
5381;SDS011;2714;49.852;6.564;2023-04-01T13:02:20;2.30;;;0.90;;
5381;SDS011;2714;49.852;6.564;2023-04-01T13:10:59;2.53;;;1.50;;
5381;SDS011;2714;49.852;6.564;2023-04-01T13:15:19;2.40;;;1.33;;
5381;SDS011;2714;49.852;6.564;2023-04-01T13:19:27;2.03;;;1.40;;
5381;SDS011;2714;49.852;6.564;2023-04-01T13:23:36;1.60;;;1.50;;
5381;SDS011;2714;49.852;6.564;2023-04-01T13:27:51;2.13;;;1.70;;
5381;SDS011;2714;49.852;6.564;2023-04-01T13:36:49;1.20;;;0.90;;
5381;SDS011;2714;49.852;6.564;2023-04-01T13:45:35;1.30;;;0.97;;
5381;SDS011;2714;49.852;6.564;2023-04-01T13:54:42;1.20;;;0.90;;
5381;SDS011;2714;49.852;6.564;2023-04-01T14:08:09;1.60;;;0.90;;
5381;SDS011;2714;49.852;6.564;2023-04-01T14:12:39;1.60;;;0.83;;
5381;SDS011;2714;49.852;6.564;2023-04-01T14:34:32;1.20;;;0.87;;
5381;SDS011;2714;49.852;6.564;2023-04-01T14:47:50;1.97;;;1.17;;
5381;SDS011;2714;49.852;6.564;2023-04-01T14:56:38;1.20;;;0.80;;
5381;SDS011;2714;49.852;6.564;2023-04-01T15:00:56;1.20;;;0.80;;
5381;SDS011;2714;49.852;6.564;2023-04-01T15:05:07;1.70;;;1.07;;
5381;SDS011;2714;49.852;6.564;2023-04-01T15:38:54;1.80;;;1.10;;
5381;SDS011;2714;49.852;6.564;2023-04-01T15:47:34;2.17;;;1.10;;
5381;SDS011;2714;49.852;6.564;2023-04-01T15:51:44;1.40;;;0.93;;
5381;SDS011;2714;49.852;6.564;2023-04-01T16:09:58;1.50;;;1.10;;
5381;SDS011;2714;49.852;6.564;2023-04-01T16:13:40;1.70;;;1.13;;
5381;SDS011;2714;49.852;6.564;2023-04-01T16:35:34;1.50;;;1.00;;
5381;SDS011;2714;49.852;6.564;2023-04-01T16:40:02;3.47;;;1.67;;
5381;SDS011;2714;49.852;6.564;2023-04-01T16:44:24;3.77;;;2.97;;
5381;SDS011;2714;49.852;6.564;2023-04-01T16:48:28;1.50;;;1.10;;
5381;SDS011;2714;49.852;6.564;2023-04-01T16:52:53;3.63;;;1.00;;
5381;SDS011;2714;49.852;6.564;2023-04-01T17:01:27;2.37;;;1.03;;
5381;SDS011;2714;49.852;6.564;2023-04-01T17:27:51;1.70;;;1.40;;
5381;SDS011;2714;49.852;6.564;2023-04-01T17:32:09;2.03;;;1.70;;
5381;SDS011;2714;49.852;6.564;2023-04-01T17:45:21;2.70;;;2.40;;
5381;SDS011;2714;49.852;6.564;2023-04-01T17:49:35;2.53;;;2.27;;
5381;SDS011;2714;49.852;6.564;2023-04-01T17:58:40;2.60;;;2.20;;
5381;SDS011;2714;49.852;6.564;2023-04-01T18:07:16;3.17;;;2.80;;
5381;SDS011;2714;49.852;6.564;2023-04-01T18:20:23;3.03;;;2.43;;
5381;SDS011;2714;49.852;6.564;2023-04-01T18:24:54;2.50;;;2.10;;
5381;SDS011;2714;49.852;6.564;2023-04-01T18:29:13;3.70;;;3.10;;
5381;SDS011;2714;49.852;6.564;2023-04-01T18:33:28;3.43;;;2.37;;
5381;SDS011;2714;49.852;6.564;2023-04-01T18:37:44;3.60;;;2.27;;
5381;SDS011;2714;49.852;6.564;2023-04-01T18:46:26;17.13;;;9.07;;
5381;SDS011;2714;49.852;6.564;2023-04-01T18:50:43;9.60;;;5.40;;
5381;SDS011;2714;49.852;6.564;2023-04-01T18:59:36;10.63;;;6.93;;
5381;SDS011;2714;49.852;6.564;2023-04-01T19:03:43;7.87;;;6.17;;
5381;SDS011;2714;49.852;6.564;2023-04-01T19:07:54;5.40;;;3.23;;
5381;SDS011;2714;49.852;6.564;2023-04-01T19:16:42;21.17;;;10.57;;
5381;SDS011;2714;49.852;6.564;2023-04-01T19:21:11;18.63;;;8.10;;
5381;SDS011;2714;49.852;6.564;2023-04-01T19:38:30;111.10;;;39.50;;
5381;SDS011;2714;49.852;6.564;2023-04-01T19:42:39;49.63;;;21.20;;
5381;SDS011;2714;49.852;6.564;2023-04-01T19:51:42;31.43;;;15.07;;
5381;SDS011;2714;49.852;6.564;2023-04-01T19:55:52;48.67;;;25.60;;
5381;SDS011;2714;49.852;6.564;2023-04-01T20:04:31;4.93;;;4.17;;
5381;SDS011;2714;49.852;6.564;2023-04-01T20:13:03;3.40;;;2.80;;
5381;SDS011;2714;49.852;6.564;2023-04-01T20:17:19;2.37;;;2.10;;
5381;SDS011;2714;49.852;6.564;2023-04-01T20:21:30;5.10;;;2.53;;
5381;SDS011;2714;49.852;6.564;2023-04-01T20:25:43;3.37;;;2.13;;
5381;SDS011;2714;49.852;6.564;2023-04-01T21:44:45;5.63;;;3.70;;
5381;SDS011;2714;49.852;6.564;2023-04-01T22:15:46;3.50;;;2.67;;
5381;SDS011;2714;49.852;6.564;2023-04-01T22:19:55;5.10;;;3.07;;
5381;SDS011;2714;49.852;6.564;2023-04-01T22:24:19;5.30;;;2.70;;
5381;SDS011;2714;49.852;6.564;2023-04-01T22:37:28;4.27;;;3.27;;
5381;SDS011;2714;49.852;6.564;2023-04-01T22:50:49;4.53;;;3.50;;
5381;SDS011;2714;49.852;6.564;2023-04-01T22:55:00;5.20;;;3.67;;
5381;SDS011;2714;49.852;6.564;2023-04-01T23:03:30;7.80;;;3.83;;
5381;SDS011;2714;49.852;6.564;2023-04-01T23:11:53;6.70;;;4.10;;
5381;SDS011;2714;49.852;6.564;2023-04-01T23:15:57;7.80;;;4.90;;
5381;SDS011;2714;49.852;6.564;2023-04-01T23:28:43;6.40;;;4.20;;
5381;SDS011;2714;49.852;6.564;2023-04-01T23:32:55;5.67;;;4.67;;
5381;SDS011;2714;49.852;6.564;2023-04-01T23:37:10;6.00;;;4.43;;
5381;SDS011;2714;49.852;6.564;2023-04-01T23:41:19;7.10;;;5.53;;
5381;SDS011;2714;49.852;6.564;2023-04-01T23:45:26;6.13;;;5.07;;
5381;SDS011;2714;49.852;6.564;2023-04-01T23:49:28;6.60;;;5.23;;
5381;SDS011;2714;49.852;6.564;2023-04-01T23:53:34;7.27;;;5.00;;
5381;SDS011;2714;49.852;6.564;2023-04-01T23:57:35;6.50;;;4.87;;
